Terminal Aerodrome Forecast
Issued by NWS Upton, NY

Home | Current Version | Previous Version | Text Only | Print | Product List | Glossary On
Versions: 1 2 3 4 5 6 7 8 9 10 11 12 13 14 15 16 17 18 19 20 21 22 23 24 25 26
527
FTUS41 KOKX 080831 AAA
TAFLGA
TAF AMD
KLGA 080831Z 0809/0906 03014G24KT P6SM SCT020 OVC080
     FM081200 03018G25KT 5SM -SN BR OVC015
     FM081400 02018G25KT 1SM -SN BKN007 OVC015
     FM082000 02011G17KT 3SM -SN SCT007 OVC015
     FM082300 02009KT P6SM OVC025
     FM090300 06007KT P6SM BKN025=

USA.gov is the U.S. government's official web portal to all federal, state and local government web resources and services.